sensor_id;sensor_type;location;lat;lon;timestamp;P1;durP1;ratioP1;P2;durP2;ratioP2
16673;SDS011;8450;52.654;10.326;2024-02-14T00:01:34;4.97;;;2.00;;
16673;SDS011;8450;52.654;10.326;2024-02-14T00:04:01;6.13;;;3.47;;
16673;SDS011;8450;52.654;10.326;2024-02-14T00:06:27;4.00;;;2.70;;
16673;SDS011;8450;52.654;10.326;2024-02-14T00:08:53;5.23;;;3.10;;
16673;SDS011;8450;52.654;10.326;2024-02-14T00:11:18;5.20;;;3.43;;
16673;SDS011;8450;52.654;10.326;2024-02-14T00:13:44;7.30;;;3.00;;
16673;SDS011;8450;52.654;10.326;2024-02-14T00:16:10;5.27;;;3.07;;
16673;SDS011;8450;52.654;10.326;2024-02-14T00:18:35;4.47;;;3.50;;
16673;SDS011;8450;52.654;10.326;2024-02-14T00:21:01;3.77;;;2.97;;
16673;SDS011;8450;52.654;10.326;2024-02-14T00:23:26;4.53;;;3.33;;
16673;SDS011;8450;52.654;10.326;2024-02-14T00:25:52;4.60;;;3.07;;
16673;SDS011;8450;52.654;10.326;2024-02-14T00:28:17;5.60;;;3.30;;
16673;SDS011;8450;52.654;10.326;2024-02-14T00:30:43;6.97;;;3.33;;
16673;SDS011;8450;52.654;10.326;2024-02-14T00:33:08;4.87;;;3.20;;
16673;SDS011;8450;52.654;10.326;2024-02-14T00:35:34;6.70;;;3.80;;
16673;SDS011;8450;52.654;10.326;2024-02-14T00:37:59;10.50;;;3.50;;
16673;SDS011;8450;52.654;10.326;2024-02-14T00:40:25;3.43;;;2.53;;
16673;SDS011;8450;52.654;10.326;2024-02-14T00:42:50;5.57;;;3.03;;
16673;SDS011;8450;52.654;10.326;2024-02-14T00:45:16;4.53;;;3.10;;
16673;SDS011;8450;52.654;10.326;2024-02-14T00:47:41;4.17;;;2.70;;
16673;SDS011;8450;52.654;10.326;2024-02-14T00:50:07;4.73;;;2.90;;
16673;SDS011;8450;52.654;10.326;2024-02-14T00:52:34;3.53;;;2.67;;
16673;SDS011;8450;52.654;10.326;2024-02-14T00:54:59;3.10;;;2.67;;
16673;SDS011;8450;52.654;10.326;2024-02-14T00:57:28;10.87;;;3.30;;
16673;SDS011;8450;52.654;10.326;2024-02-14T00:59:53;4.93;;;2.83;;
16673;SDS011;8450;52.654;10.326;2024-02-14T01:02:21;5.30;;;2.83;;
16673;SDS011;8450;52.654;10.326;2024-02-14T01:04:47;3.73;;;3.10;;
16673;SDS011;8450;52.654;10.326;2024-02-14T01:07:12;3.63;;;3.00;;
16673;SDS011;8450;52.654;10.326;2024-02-14T01:09:38;5.67;;;3.50;;
16673;SDS011;8450;52.654;10.326;2024-02-14T01:12:03;6.80;;;3.80;;
16673;SDS011;8450;52.654;10.326;2024-02-14T01:14:29;6.97;;;3.60;;
16673;SDS011;8450;52.654;10.326;2024-02-14T01:16:56;4.87;;;3.43;;
16673;SDS011;8450;52.654;10.326;2024-02-14T01:19:21;4.87;;;3.20;;
16673;SDS011;8450;52.654;10.326;2024-02-14T01:21:49;4.23;;;3.37;;
16673;SDS011;8450;52.654;10.326;2024-02-14T01:24:15;4.63;;;3.13;;
16673;SDS011;8450;52.654;10.326;2024-02-14T01:26:41;4.77;;;3.40;;
16673;SDS011;8450;52.654;10.326;2024-02-14T01:29:07;7.50;;;3.70;;
16673;SDS011;8450;52.654;10.326;2024-02-14T01:31:32;5.87;;;3.73;;
16673;SDS011;8450;52.654;10.326;2024-02-14T01:33:59;5.10;;;3.40;;
16673;SDS011;8450;52.654;10.326;2024-02-14T01:36:27;8.10;;;3.47;;
16673;SDS011;8450;52.654;10.326;2024-02-14T01:38:53;8.10;;;3.40;;
16673;SDS011;8450;52.654;10.326;2024-02-14T01:41:19;5.37;;;3.53;;
16673;SDS011;8450;52.654;10.326;2024-02-14T01:43:46;7.13;;;3.40;;
16673;SDS011;8450;52.654;10.326;2024-02-14T01:46:12;6.03;;;3.57;;
16673;SDS011;8450;52.654;10.326;2024-02-14T01:48:38;3.23;;;2.93;;
16673;SDS011;8450;52.654;10.326;2024-02-14T01:51:05;4.83;;;3.30;;
16673;SDS011;8450;52.654;10.326;2024-02-14T01:53:33;5.80;;;3.27;;
16673;SDS011;8450;52.654;10.326;2024-02-14T01:56:01;4.47;;;3.10;;
16673;SDS011;8450;52.654;10.326;2024-02-14T01:58:27;4.63;;;3.30;;
16673;SDS011;8450;52.654;10.326;2024-02-14T02:00:54;6.03;;;3.10;;
16673;SDS011;8450;52.654;10.326;2024-02-14T02:03:22;5.37;;;3.20;;
16673;SDS011;8450;52.654;10.326;2024-02-14T02:05:49;9.40;;;3.37;;
16673;SDS011;8450;52.654;10.326;2024-02-14T02:08:15;5.93;;;3.30;;
16673;SDS011;8450;52.654;10.326;2024-02-14T02:10:40;4.43;;;3.20;;
16673;SDS011;8450;52.654;10.326;2024-02-14T02:13:06;8.10;;;4.10;;
16673;SDS011;8450;52.654;10.326;2024-02-14T02:15:33;8.30;;;3.80;;
16673;SDS011;8450;52.654;10.326;2024-02-14T02:17:59;6.83;;;3.30;;
16673;SDS011;8450;52.654;10.326;2024-02-14T02:20:26;4.80;;;2.90;;
16673;SDS011;8450;52.654;10.326;2024-02-14T02:22:53;4.20;;;3.17;;
16673;SDS011;8450;52.654;10.326;2024-02-14T02:25:18;6.30;;;3.70;;
16673;SDS011;8450;52.654;10.326;2024-02-14T02:27:48;5.07;;;3.70;;
16673;SDS011;8450;52.654;10.326;2024-02-14T02:30:14;3.30;;;2.93;;
16673;SDS011;8450;52.654;10.326;2024-02-14T02:32:39;4.63;;;3.20;;
16673;SDS011;8450;52.654;10.326;2024-02-14T02:35:06;3.20;;;2.63;;
16673;SDS011;8450;52.654;10.326;2024-02-14T02:37:32;3.47;;;2.83;;
16673;SDS011;8450;52.654;10.326;2024-02-14T02:39:58;4.23;;;2.87;;
16673;SDS011;8450;52.654;10.326;2024-02-14T02:42:23;10.63;;;3.17;;
16673;SDS011;8450;52.654;10.326;2024-02-14T02:44:50;3.97;;;2.97;;
16673;SDS011;8450;52.654;10.326;2024-02-14T02:47:16;3.87;;;2.80;;
16673;SDS011;8450;52.654;10.326;2024-02-14T02:49:45;7.03;;;3.30;;
16673;SDS011;8450;52.654;10.326;2024-02-14T02:52:11;3.27;;;2.53;;
16673;SDS011;8450;52.654;10.326;2024-02-14T02:54:37;7.93;;;3.20;;
16673;SDS011;8450;52.654;10.326;2024-02-14T02:57:07;4.27;;;2.83;;
16673;SDS011;8450;52.654;10.326;2024-02-14T02:59:33;3.87;;;2.73;;
16673;SDS011;8450;52.654;10.326;2024-02-14T03:02:00;4.17;;;3.20;;
16673;SDS011;8450;52.654;10.326;2024-02-14T03:04:26;3.93;;;3.10;;
16673;SDS011;8450;52.654;10.326;2024-02-14T03:06:51;3.90;;;3.20;;
16673;SDS011;8450;52.654;10.326;2024-02-14T03:09:17;7.17;;;3.47;;
16673;SDS011;8450;52.654;10.326;2024-02-14T03:11:46;3.97;;;3.40;;
16673;SDS011;8450;52.654;10.326;2024-02-14T03:14:12;7.37;;;3.43;;
16673;SDS011;8450;52.654;10.326;2024-02-14T03:16:38;5.47;;;3.60;;
16673;SDS011;8450;52.654;10.326;2024-02-14T03:19:04;8.57;;;3.27;;
16673;SDS011;8450;52.654;10.326;2024-02-14T03:21:30;6.73;;;3.63;;
16673;SDS011;8450;52.654;10.326;2024-02-14T03:23:58;3.70;;;3.10;;
16673;SDS011;8450;52.654;10.326;2024-02-14T03:26:23;5.00;;;3.33;;
16673;SDS011;8450;52.654;10.326;2024-02-14T03:28:49;4.33;;;3.53;;
16673;SDS011;8450;52.654;10.326;2024-02-14T03:31:14;6.20;;;3.97;;
16673;SDS011;8450;52.654;10.326;2024-02-14T03:33:40;3.57;;;2.70;;
16673;SDS011;8450;52.654;10.326;2024-02-14T03:36:09;4.77;;;3.27;;
16673;SDS011;8450;52.654;10.326;2024-02-14T03:38:35;3.33;;;2.57;;
16673;SDS011;8450;52.654;10.326;2024-02-14T03:41:01;4.60;;;3.10;;
16673;SDS011;8450;52.654;10.326;2024-02-14T03:43:27;6.90;;;3.50;;
16673;SDS011;8450;52.654;10.326;2024-02-14T03:45:53;4.47;;;3.47;;
16673;SDS011;8450;52.654;10.326;2024-02-14T03:48:19;3.90;;;1.53;;
16673;SDS011;8450;52.654;10.326;2024-02-14T03:50:45;3.87;;;3.13;;
16673;SDS011;8450;52.654;10.326;2024-02-14T03:53:11;4.13;;;3.37;;
16673;SDS011;8450;52.654;10.326;2024-02-14T03:55:37;8.43;;;3.87;;
16673;SDS011;8450;52.654;10.326;2024-02-14T03:58:03;5.57;;;3.97;;
16673;SDS011;8450;52.654;10.326;2024-02-14T04:00:30;7.30;;;3.77;;
16673;SDS011;8450;52.654;10.326;2024-02-14T04:02:56;4.30;;;3.70;;
16673;SDS011;8450;52.654;10.326;2024-02-14T04:05:24;4.23;;;3.83;;
16673;SDS011;8450;52.654;10.326;2024-02-14T04:07:52;7.17;;;4.30;;
16673;SDS011;8450;52.654;10.326;2024-02-14T04:10:19;6.87;;;4.53;;
16673;SDS011;8450;52.654;10.326;2024-02-14T04:12:45;9.23;;;3.80;;
16673;SDS011;8450;52.654;10.326;2024-02-14T04:15:10;7.43;;;4.93;;
16673;SDS011;8450;52.654;10.326;2024-02-14T04:17:36;5.80;;;3.67;;
16673;SDS011;8450;52.654;10.326;2024-02-14T04:20:02;6.03;;;3.93;;
16673;SDS011;8450;52.654;10.326;2024-02-14T04:22:28;6.27;;;4.63;;
16673;SDS011;8450;52.654;10.326;2024-02-14T04:24:53;6.77;;;4.47;;
16673;SDS011;8450;52.654;10.326;2024-02-14T04:27:19;8.67;;;3.90;;
16673;SDS011;8450;52.654;10.326;2024-02-14T04:29:47;4.43;;;3.70;;
16673;SDS011;8450;52.654;10.326;2024-02-14T04:32:13;9.23;;;4.60;;
16673;SDS011;8450;52.654;10.326;2024-02-14T04:34:39;5.10;;;3.50;;
16673;SDS011;8450;52.654;10.326;2024-02-14T04:37:05;5.37;;;4.17;;
16673;SDS011;8450;52.654;10.326;2024-02-14T04:39:37;5.23;;;3.77;;
16673;SDS011;8450;52.654;10.326;2024-02-14T04:42:03;4.43;;;3.97;;
16673;SDS011;8450;52.654;10.326;2024-02-14T04:44:30;6.90;;;3.87;;
16673;SDS011;8450;52.654;10.326;2024-02-14T04:46:56;6.23;;;4.43;;
16673;SDS011;8450;52.654;10.326;2024-02-14T04:49:23;7.57;;;4.83;;
16673;SDS011;8450;52.654;10.326;2024-02-14T04:51:49;7.87;;;4.37;;
16673;SDS011;8450;52.654;10.326;2024-02-14T04:54:18;2.30;;;2.10;;
16673;SDS011;8450;52.654;10.326;2024-02-14T04:56:44;6.00;;;4.20;;
16673;SDS011;8450;52.654;10.326;2024-02-14T04:59:10;7.73;;;4.83;;
16673;SDS011;8450;52.654;10.326;2024-02-14T05:01:36;6.87;;;4.90;;
16673;SDS011;8450;52.654;10.326;2024-02-14T05:04:01;7.10;;;4.60;;
16673;SDS011;8450;52.654;10.326;2024-02-14T05:06:28;5.07;;;4.27;;
16673;SDS011;8450;52.654;10.326;2024-02-14T05:08:53;4.30;;;3.43;;
16673;SDS011;8450;52.654;10.326;2024-02-14T05:11:19;4.90;;;3.57;;
16673;SDS011;8450;52.654;10.326;2024-02-14T05:13:45;6.97;;;4.57;;
16673;SDS011;8450;52.654;10.326;2024-02-14T05:16:11;6.47;;;4.20;;
16673;SDS011;8450;52.654;10.326;2024-02-14T05:18:37;6.37;;;4.27;;
16673;SDS011;8450;52.654;10.326;2024-02-14T05:21:06;5.90;;;4.27;;
16673;SDS011;8450;52.654;10.326;2024-02-14T05:23:33;8.10;;;4.80;;
16673;SDS011;8450;52.654;10.326;2024-02-14T05:25:59;5.57;;;3.77;;
16673;SDS011;8450;52.654;10.326;2024-02-14T05:28:27;5.23;;;4.03;;
16673;SDS011;8450;52.654;10.326;2024-02-14T05:30:53;6.10;;;3.80;;
16673;SDS011;8450;52.654;10.326;2024-02-14T05:33:19;8.67;;;4.20;;
16673;SDS011;8450;52.654;10.326;2024-02-14T05:35:47;5.43;;;3.70;;
16673;SDS011;8450;52.654;10.326;2024-02-14T05:38:13;6.40;;;4.17;;
16673;SDS011;8450;52.654;10.326;2024-02-14T05:40:40;6.27;;;4.27;;
16673;SDS011;8450;52.654;10.326;2024-02-14T05:43:05;6.23;;;4.17;;
16673;SDS011;8450;52.654;10.326;2024-02-14T05:45:32;4.03;;;2.90;;
16673;SDS011;8450;52.654;10.326;2024-02-14T05:47:58;6.27;;;3.97;;
16673;SDS011;8450;52.654;10.326;2024-02-14T05:50:23;6.73;;;2.97;;
16673;SDS011;8450;52.654;10.326;2024-02-14T05:52:49;7.93;;;3.43;;
16673;SDS011;8450;52.654;10.326;2024-02-14T05:55:15;4.80;;;3.43;;
16673;SDS011;8450;52.654;10.326;2024-02-14T05:57:40;4.23;;;3.43;;
16673;SDS011;8450;52.654;10.326;2024-02-14T06:00:06;6.20;;;4.70;;
16673;SDS011;8450;52.654;10.326;2024-02-14T06:02:36;5.93;;;4.23;;
16673;SDS011;8450;52.654;10.326;2024-02-14T06:05:02;5.23;;;4.07;;
16673;SDS011;8450;52.654;10.326;2024-02-14T06:07:28;3.80;;;2.70;;
16673;SDS011;8450;52.654;10.326;2024-02-14T06:09:53;4.23;;;3.23;;
16673;SDS011;8450;52.654;10.326;2024-02-14T06:12:19;6.73;;;4.03;;
16673;SDS011;8450;52.654;10.326;2024-02-14T06:14:47;5.20;;;4.10;;
16673;SDS011;8450;52.654;10.326;2024-02-14T06:17:14;7.13;;;4.47;;
16673;SDS011;8450;52.654;10.326;2024-02-14T06:19:39;10.23;;;4.83;;
16673;SDS011;8450;52.654;10.326;2024-02-14T06:22:06;6.70;;;4.90;;
16673;SDS011;8450;52.654;10.326;2024-02-14T06:24:31;7.33;;;4.97;;
16673;SDS011;8450;52.654;10.326;2024-02-14T06:26:57;5.20;;;3.93;;
16673;SDS011;8450;52.654;10.326;2024-02-14T06:29:22;7.50;;;4.47;;
16673;SDS011;8450;52.654;10.326;2024-02-14T06:31:48;11.93;;;4.80;;
16673;SDS011;8450;52.654;10.326;2024-02-14T06:34:14;7.73;;;4.83;;
16673;SDS011;8450;52.654;10.326;2024-02-14T06:36:40;11.10;;;5.47;;
16673;SDS011;8450;52.654;10.326;2024-02-14T06:39:06;7.27;;;4.13;;
16673;SDS011;8450;52.654;10.326;2024-02-14T06:41:32;6.43;;;4.67;;
16673;SDS011;8450;52.654;10.326;2024-02-14T06:43:58;10.17;;;4.87;;
16673;SDS011;8450;52.654;10.326;2024-02-14T06:46:23;7.73;;;3.63;;
16673;SDS011;8450;52.654;10.326;2024-02-14T06:48:49;7.87;;;4.90;;
16673;SDS011;8450;52.654;10.326;2024-02-14T06:51:15;7.33;;;4.77;;
16673;SDS011;8450;52.654;10.326;2024-02-14T06:53:40;6.50;;;5.00;;
16673;SDS011;8450;52.654;10.326;2024-02-14T06:56:06;5.77;;;4.50;;
16673;SDS011;8450;52.654;10.326;2024-02-14T06:58:31;4.77;;;4.27;;
16673;SDS011;8450;52.654;10.326;2024-02-14T07:00:57;6.07;;;3.73;;
16673;SDS011;8450;52.654;10.326;2024-02-14T07:03:23;6.53;;;3.77;;
16673;SDS011;8450;52.654;10.326;2024-02-14T07:05:48;5.17;;;3.40;;
16673;SDS011;8450;52.654;10.326;2024-02-14T07:08:14;8.13;;;4.50;;
16673;SDS011;8450;52.654;10.326;2024-02-14T07:10:40;4.77;;;4.23;;
16673;SDS011;8450;52.654;10.326;2024-02-14T07:13:05;5.87;;;3.80;;
16673;SDS011;8450;52.654;10.326;2024-02-14T07:15:31;6.10;;;3.87;;
16673;SDS011;8450;52.654;10.326;2024-02-14T07:17:56;6.30;;;4.50;;
16673;SDS011;8450;52.654;10.326;2024-02-14T07:20:23;5.67;;;4.17;;
16673;SDS011;8450;52.654;10.326;2024-02-14T07:22:51;5.23;;;3.73;;
16673;SDS011;8450;52.654;10.326;2024-02-14T07:25:18;6.47;;;4.47;;
16673;SDS011;8450;52.654;10.326;2024-02-14T07:27:44;4.70;;;3.10;;
16673;SDS011;8450;52.654;10.326;2024-02-14T07:30:11;6.93;;;4.87;;
16673;SDS011;8450;52.654;10.326;2024-02-14T07:32:37;5.73;;;3.90;;
16673;SDS011;8450;52.654;10.326;2024-02-14T07:35:03;4.90;;;4.00;;
16673;SDS011;8450;52.654;10.326;2024-02-14T07:37:30;7.10;;;4.17;;
16673;SDS011;8450;52.654;10.326;2024-02-14T07:39:55;7.10;;;4.47;;
16673;SDS011;8450;52.654;10.326;2024-02-14T07:42:21;6.07;;;4.13;;
16673;SDS011;8450;52.654;10.326;2024-02-14T07:44:46;6.60;;;4.60;;
16673;SDS011;8450;52.654;10.326;2024-02-14T07:47:12;7.17;;;4.43;;
16673;SDS011;8450;52.654;10.326;2024-02-14T07:49:38;4.90;;;3.60;;
16673;SDS011;8450;52.654;10.326;2024-02-14T07:52:04;5.47;;;4.23;;
16673;SDS011;8450;52.654;10.326;2024-02-14T07:54:30;4.60;;;3.63;;
16673;SDS011;8450;52.654;10.326;2024-02-14T07:56:56;6.83;;;4.37;;
16673;SDS011;8450;52.654;10.326;2024-02-14T07:59:21;6.70;;;4.67;;
16673;SDS011;8450;52.654;10.326;2024-02-14T08:01:47;5.27;;;4.23;;
16673;SDS011;8450;52.654;10.326;2024-02-14T08:04:12;4.13;;;3.03;;
16673;SDS011;8450;52.654;10.326;2024-02-14T08:06:38;6.40;;;4.50;;
16673;SDS011;8450;52.654;10.326;2024-02-14T08:09:03;8.27;;;4.50;;
16673;SDS011;8450;52.654;10.326;2024-02-14T08:11:34;7.57;;;4.03;;
16673;SDS011;8450;52.654;10.326;2024-02-14T08:14:00;7.80;;;4.10;;
16673;SDS011;8450;52.654;10.326;2024-02-14T08:16:26;4.53;;;3.70;;
16673;SDS011;8450;52.654;10.326;2024-02-14T08:18:51;4.43;;;3.70;;
16673;SDS011;8450;52.654;10.326;2024-02-14T08:21:23;3.93;;;3.00;;
16673;SDS011;8450;52.654;10.326;2024-02-14T08:23:52;4.60;;;3.60;;
16673;SDS011;8450;52.654;10.326;2024-02-14T08:26:18;3.83;;;2.93;;
16673;SDS011;8450;52.654;10.326;2024-02-14T08:28:44;5.27;;;3.63;;
16673;SDS011;8450;52.654;10.326;2024-02-14T08:31:10;7.10;;;3.67;;
16673;SDS011;8450;52.654;10.326;2024-02-14T08:33:36;5.33;;;3.23;;
16673;SDS011;8450;52.654;10.326;2024-02-14T08:36:03;5.90;;;3.50;;
16673;SDS011;8450;52.654;10.326;2024-02-14T08:38:29;3.80;;;3.10;;
16673;SDS011;8450;52.654;10.326;2024-02-14T08:40:55;5.00;;;3.50;;
16673;SDS011;8450;52.654;10.326;2024-02-14T08:43:21;7.27;;;3.60;;
16673;SDS011;8450;52.654;10.326;2024-02-14T08:45:49;5.47;;;3.80;;
16673;SDS011;8450;52.654;10.326;2024-02-14T08:48:16;3.70;;;3.07;;
16673;SDS011;8450;52.654;10.326;2024-02-14T08:50:42;4.97;;;3.77;;
16673;SDS011;8450;52.654;10.326;2024-02-14T08:53:07;3.43;;;3.13;;
16673;SDS011;8450;52.654;10.326;2024-02-14T08:55:33;4.47;;;3.10;;
16673;SDS011;8450;52.654;10.326;2024-02-14T08:57:59;5.03;;;3.60;;
16673;SDS011;8450;52.654;10.326;2024-02-14T09:00:25;3.83;;;3.07;;
16673;SDS011;8450;52.654;10.326;2024-02-14T09:02:51;4.40;;;3.60;;
16673;SDS011;8450;52.654;10.326;2024-02-14T09:05:17;3.63;;;3.00;;
16673;SDS011;8450;52.654;10.326;2024-02-14T09:07:43;5.20;;;3.43;;
16673;SDS011;8450;52.654;10.326;2024-02-14T09:10:09;4.03;;;2.93;;
16673;SDS011;8450;52.654;10.326;2024-02-14T09:12:37;6.43;;;3.87;;
16673;SDS011;8450;52.654;10.326;2024-02-14T09:15:07;5.07;;;3.30;;
16673;SDS011;8450;52.654;10.326;2024-02-14T09:17:33;4.17;;;3.40;;
16673;SDS011;8450;52.654;10.326;2024-02-14T09:19:59;4.17;;;3.40;;
16673;SDS011;8450;52.654;10.326;2024-02-14T09:22:26;4.03;;;3.40;;
16673;SDS011;8450;52.654;10.326;2024-02-14T09:24:51;5.87;;;3.57;;
16673;SDS011;8450;52.654;10.326;2024-02-14T09:27:17;4.53;;;3.30;;
16673;SDS011;8450;52.654;10.326;2024-02-14T09:29:43;3.80;;;3.10;;
16673;SDS011;8450;52.654;10.326;2024-02-14T09:32:08;5.67;;;3.90;;
16673;SDS011;8450;52.654;10.326;2024-02-14T09:34:34;4.03;;;3.07;;
16673;SDS011;8450;52.654;10.326;2024-02-14T09:37:00;4.27;;;3.70;;
16673;SDS011;8450;52.654;10.326;2024-02-14T09:39:25;3.40;;;3.10;;
16673;SDS011;8450;52.654;10.326;2024-02-14T09:41:51;4.87;;;3.67;;
16673;SDS011;8450;52.654;10.326;2024-02-14T09:44:20;3.90;;;3.50;;
16673;SDS011;8450;52.654;10.326;2024-02-14T09:46:49;5.10;;;3.10;;
16673;SDS011;8450;52.654;10.326;2024-02-14T09:49:15;5.63;;;3.77;;
16673;SDS011;8450;52.654;10.326;2024-02-14T09:51:43;4.53;;;4.07;;
16673;SDS011;8450;52.654;10.326;2024-02-14T09:54:11;5.97;;;4.17;;
16673;SDS011;8450;52.654;10.326;2024-02-14T09:56:37;6.97;;;3.57;;
16673;SDS011;8450;52.654;10.326;2024-02-14T09:59:02;5.23;;;3.80;;
16673;SDS011;8450;52.654;10.326;2024-02-14T10:01:29;5.23;;;3.67;;
16673;SDS011;8450;52.654;10.326;2024-02-14T10:03:55;5.57;;;3.93;;
16673;SDS011;8450;52.654;10.326;2024-02-14T10:06:20;4.03;;;3.23;;
16673;SDS011;8450;52.654;10.326;2024-02-14T10:08:47;3.90;;;3.43;;
16673;SDS011;8450;52.654;10.326;2024-02-14T10:11:14;3.80;;;3.37;;
16673;SDS011;8450;52.654;10.326;2024-02-14T10:13:40;4.70;;;3.20;;
16673;SDS011;8450;52.654;10.326;2024-02-14T10:16:07;6.57;;;3.40;;
16673;SDS011;8450;52.654;10.326;2024-02-14T10:18:33;3.73;;;3.37;;
16673;SDS011;8450;52.654;10.326;2024-02-14T10:20:59;3.97;;;3.23;;
16673;SDS011;8450;52.654;10.326;2024-02-14T10:23:26;6.70;;;3.23;;
16673;SDS011;8450;52.654;10.326;2024-02-14T10:25:53;4.57;;;3.43;;
16673;SDS011;8450;52.654;10.326;2024-02-14T10:28:20;5.30;;;3.77;;
16673;SDS011;8450;52.654;10.326;2024-02-14T10:30:46;4.33;;;3.40;;
16673;SDS011;8450;52.654;10.326;2024-02-14T10:33:14;6.00;;;4.17;;
16673;SDS011;8450;52.654;10.326;2024-02-14T10:35:47;5.07;;;4.53;;
16673;SDS011;8450;52.654;10.326;2024-02-14T10:38:14;5.23;;;4.10;;
16673;SDS011;8450;52.654;10.326;2024-02-14T10:40:43;7.23;;;4.83;;
16673;SDS011;8450;52.654;10.326;2024-02-14T10:43:11;6.50;;;5.20;;
16673;SDS011;8450;52.654;10.326;2024-02-14T10:45:37;9.20;;;5.87;;
16673;SDS011;8450;52.654;10.326;2024-02-14T10:48:04;6.90;;;5.03;;
16673;SDS011;8450;52.654;10.326;2024-02-14T10:50:32;8.77;;;4.33;;
16673;SDS011;8450;52.654;10.326;2024-02-14T10:53:04;8.20;;;5.23;;
16673;SDS011;8450;52.654;10.326;2024-02-14T10:55:32;8.70;;;6.70;;
16673;SDS011;8450;52.654;10.326;2024-02-14T10:57:58;9.03;;;6.00;;
16673;SDS011;8450;52.654;10.326;2024-02-14T11:00:25;9.73;;;7.13;;
16673;SDS011;8450;52.654;10.326;2024-02-14T11:02:51;11.93;;;8.47;;
16673;SDS011;8450;52.654;10.326;2024-02-14T11:05:19;11.97;;;7.73;;
16673;SDS011;8450;52.654;10.326;2024-02-14T11:07:48;13.27;;;7.77;;
16673;SDS011;8450;52.654;10.326;2024-02-14T11:10:17;11.27;;;8.17;;
16673;SDS011;8450;52.654;10.326;2024-02-14T11:12:43;9.83;;;7.57;;
16673;SDS011;8450;52.654;10.326;2024-02-14T11:15:18;11.53;;;7.77;;
16673;SDS011;8450;52.654;10.326;2024-02-14T11:17:49;13.10;;;8.60;;
16673;SDS011;8450;52.654;10.326;2024-02-14T11:23:00;10.47;;;7.93;;
16673;SDS011;8450;52.654;10.326;2024-02-14T11:25:32;12.27;;;8.87;;
16673;SDS011;8450;52.654;10.326;2024-02-14T11:28:14;11.47;;;8.13;;
16673;SDS011;8450;52.654;10.326;2024-02-14T11:30:40;11.00;;;8.10;;
16673;SDS011;8450;52.654;10.326;2024-02-14T11:33:14;14.10;;;8.37;;
16673;SDS011;8450;52.654;10.326;2024-02-14T11:35:42;12.13;;;7.83;;
16673;SDS011;8450;52.654;10.326;2024-02-14T11:38:09;13.70;;;8.30;;
16673;SDS011;8450;52.654;10.326;2024-02-14T11:40:35;15.33;;;9.20;;
16673;SDS011;8450;52.654;10.326;2024-02-14T11:43:03;15.63;;;10.90;;
16673;SDS011;8450;52.654;10.326;2024-02-14T11:45:29;14.93;;;9.73;;
16673;SDS011;8450;52.654;10.326;2024-02-14T11:47:55;17.30;;;11.93;;
16673;SDS011;8450;52.654;10.326;2024-02-14T11:50:21;14.13;;;10.93;;
16673;SDS011;8450;52.654;10.326;2024-02-14T11:52:47;18.53;;;12.80;;
16673;SDS011;8450;52.654;10.326;2024-02-14T11:55:12;25.33;;;15.83;;
16673;SDS011;8450;52.654;10.326;2024-02-14T11:57:40;15.90;;;11.53;;
16673;SDS011;8450;52.654;10.326;2024-02-14T12:00:07;15.27;;;11.90;;
16673;SDS011;8450;52.654;10.326;2024-02-14T12:02:34;21.13;;;13.77;;
16673;SDS011;8450;52.654;10.326;2024-02-14T12:05:01;21.30;;;14.10;;
16673;SDS011;8450;52.654;10.326;2024-02-14T12:07:30;19.93;;;13.30;;
16673;SDS011;8450;52.654;10.326;2024-02-14T12:09:56;18.00;;;13.40;;
16673;SDS011;8450;52.654;10.326;2024-02-14T12:12:22;16.97;;;12.50;;
16673;SDS011;8450;52.654;10.326;2024-02-14T12:14:51;17.67;;;12.83;;
16673;SDS011;8450;52.654;10.326;2024-02-14T12:17:17;15.77;;;12.77;;
16673;SDS011;8450;52.654;10.326;2024-02-14T12:19:46;20.20;;;12.67;;
16673;SDS011;8450;52.654;10.326;2024-02-14T12:22:13;16.30;;;11.13;;
16673;SDS011;8450;52.654;10.326;2024-02-14T12:24:46;14.90;;;11.47;;
16673;SDS011;8450;52.654;10.326;2024-02-14T12:27:13;16.97;;;11.23;;
16673;SDS011;8450;52.654;10.326;2024-02-14T12:29:41;17.77;;;11.53;;
16673;SDS011;8450;52.654;10.326;2024-02-14T12:32:10;17.23;;;10.77;;
16673;SDS011;8450;52.654;10.326;2024-02-14T12:34:37;15.93;;;10.97;;
16673;SDS011;8450;52.654;10.326;2024-02-14T12:37:02;15.90;;;10.80;;
16673;SDS011;8450;52.654;10.326;2024-02-14T12:39:28;19.67;;;12.93;;
16673;SDS011;8450;52.654;10.326;2024-02-14T12:41:54;18.40;;;12.00;;
16673;SDS011;8450;52.654;10.326;2024-02-14T12:44:20;14.73;;;10.90;;
16673;SDS011;8450;52.654;10.326;2024-02-14T12:46:46;18.77;;;11.97;;
16673;SDS011;8450;52.654;10.326;2024-02-14T12:49:12;16.43;;;11.63;;
16673;SDS011;8450;52.654;10.326;2024-02-14T12:51:38;19.10;;;11.57;;
16673;SDS011;8450;52.654;10.326;2024-02-14T12:54:04;18.57;;;11.13;;
16673;SDS011;8450;52.654;10.326;2024-02-14T12:56:32;14.03;;;9.60;;
16673;SDS011;8450;52.654;10.326;2024-02-14T12:58:58;15.47;;;10.80;;
16673;SDS011;8450;52.654;10.326;2024-02-14T13:01:25;12.80;;;9.97;;
16673;SDS011;8450;52.654;10.326;2024-02-14T13:03:50;10.63;;;8.03;;
16673;SDS011;8450;52.654;10.326;2024-02-14T13:06:16;13.07;;;9.47;;
16673;SDS011;8450;52.654;10.326;2024-02-14T13:08:41;13.87;;;9.97;;
16673;SDS011;8450;52.654;10.326;2024-02-14T13:11:07;18.47;;;10.43;;
16673;SDS011;8450;52.654;10.326;2024-02-14T13:13:36;15.33;;;9.70;;
16673;SDS011;8450;52.654;10.326;2024-02-14T13:16:01;14.73;;;10.20;;
16673;SDS011;8450;52.654;10.326;2024-02-14T13:18:27;13.40;;;10.40;;
16673;SDS011;8450;52.654;10.326;2024-02-14T13:20:52;15.93;;;11.67;;
16673;SDS011;8450;52.654;10.326;2024-02-14T13:23:24;16.33;;;10.70;;
16673;SDS011;8450;52.654;10.326;2024-02-14T13:25:50;15.30;;;10.80;;
16673;SDS011;8450;52.654;10.326;2024-02-14T13:28:16;16.43;;;10.70;;
16673;SDS011;8450;52.654;10.326;2024-02-14T13:30:41;15.07;;;10.57;;
16673;SDS011;8450;52.654;10.326;2024-02-14T13:33:07;13.63;;;9.93;;
16673;SDS011;8450;52.654;10.326;2024-02-14T13:35:34;16.17;;;10.63;;
16673;SDS011;8450;52.654;10.326;2024-02-14T13:38:03;16.00;;;10.17;;
16673;SDS011;8450;52.654;10.326;2024-02-14T13:40:30;15.90;;;11.67;;
16673;SDS011;8450;52.654;10.326;2024-02-14T13:42:56;14.67;;;9.67;;
16673;SDS011;8450;52.654;10.326;2024-02-14T13:45:22;16.47;;;10.80;;
16673;SDS011;8450;52.654;10.326;2024-02-14T13:47:48;16.03;;;10.47;;
16673;SDS011;8450;52.654;10.326;2024-02-14T13:50:14;15.37;;;9.60;;
16673;SDS011;8450;52.654;10.326;2024-02-14T13:52:40;14.57;;;10.50;;
16673;SDS011;8450;52.654;10.326;2024-02-14T13:55:05;9.03;;;7.13;;
16673;SDS011;8450;52.654;10.326;2024-02-14T13:57:33;18.13;;;10.57;;
16673;SDS011;8450;52.654;10.326;2024-02-14T14:00:03;12.53;;;8.53;;
16673;SDS011;8450;52.654;10.326;2024-02-14T14:02:37;15.90;;;10.53;;
16673;SDS011;8450;52.654;10.326;2024-02-14T14:05:07;15.73;;;10.87;;
16673;SDS011;8450;52.654;10.326;2024-02-14T14:07:37;16.10;;;11.20;;
16673;SDS011;8450;52.654;10.326;2024-02-14T14:10:04;14.80;;;10.20;;
16673;SDS011;8450;52.654;10.326;2024-02-14T14:12:30;16.97;;;12.43;;
16673;SDS011;8450;52.654;10.326;2024-02-14T14:14:56;16.80;;;11.00;;
16673;SDS011;8450;52.654;10.326;2024-02-14T14:17:22;16.87;;;10.70;;
16673;SDS011;8450;52.654;10.326;2024-02-14T14:19:47;15.53;;;10.50;;
16673;SDS011;8450;52.654;10.326;2024-02-14T14:22:13;14.83;;;10.90;;
16673;SDS011;8450;52.654;10.326;2024-02-14T14:24:39;16.73;;;11.83;;
16673;SDS011;8450;52.654;10.326;2024-02-14T14:27:05;18.17;;;11.60;;
16673;SDS011;8450;52.654;10.326;2024-02-14T14:29:34;17.47;;;11.70;;
16673;SDS011;8450;52.654;10.326;2024-02-14T14:32:00;18.77;;;12.43;;
16673;SDS011;8450;52.654;10.326;2024-02-14T14:34:26;17.90;;;11.00;;
16673;SDS011;8450;52.654;10.326;2024-02-14T14:36:55;15.37;;;10.20;;
16673;SDS011;8450;52.654;10.326;2024-02-14T14:39:20;16.33;;;11.50;;
16673;SDS011;8450;52.654;10.326;2024-02-14T14:41:46;17.63;;;11.53;;